Billerica, Massachusetts
Current Conditions -  °F | °C
As of 8:03 PM on Monday 26 Jan 2015 (Local Time) from KBED Reporting Station
Light Snow Light Snow  
Wind Chill:   Ceiling: 1700
Heat Index: 19°   Visibility: 1mi
Dew Point: 16°   Wind: 16mph
Humidity: 88%   Direction: 10°N
Pressure: 30"   Gusts: NA
Location:  42.56°N, 71.27°W
Report Text: KBED 270103Z 01014KT 1SM R11/P6000FT -SN BR OVC017 M07/M09 A3000 RMK AO2 P0000 T10721089
Loading
Personal Weather Stations






























Interactive Weather Map New forecast layout! Learn more

10-Day Weather Forecast

Advertisements
Track Severe Weather on mobile